Time,TemperatureF,DewpointF,PressureIn,WindDirection,WindDirectionDegrees,WindSpeedMPH,WindSpeedGustMPH,Humidity,HourlyPrecipIn,Conditions,Clouds,dailyrainin,SolarRadiationWatts/m^2,SoftwareType,DateUTC
2013-03-10 00:01:00,29.7,27.1,29.77,North,360,14.0,14.0,90,0.00,,,0.08,0,Wunderground v.1.15,2013-03-10 06:01:00,
2013-03-10 00:06:00,29.7,27.1,29.77,North,355,18.0,27.0,90,0.00,,,0.00,0,Wunderground v.1.15,2013-03-10 06:06:00,
2013-03-10 00:11:00,29.8,27.5,29.77,NW,324,20.0,20.0,91,0.00,,,0.00,0,Wunderground v.1.15,2013-03-10 06:11:00,
2013-03-10 00:16:00,29.8,27.5,29.77,North,360,11.0,20.0,91,0.00,,,0.00,0,Wunderground v.1.15,2013-03-10 06:16:00,
2013-03-10 00:22:00,29.8,27.5,29.78,North,360,21.0,21.0,91,0.00,,,0.00,0,Wunderground v.1.15,2013-03-10 06:22:00,
2013-03-10 00:27:00,29.9,27.6,29.78,North,360,24.0,24.0,91,0.00,,,0.00,0,Wunderground v.1.15,2013-03-10 06:27:00,
2013-03-10 00:32:00,29.9,27.6,29.78,NNE,13,12.0,17.0,91,0.00,,,0.00,0,Wunderground v.1.15,2013-03-10 06:32:00,
2013-03-10 00:37:00,30.0,27.7,29.79,NNE,24,22.0,22.0,91,0.00,,,0.00,0,Wunderground v.1.15,2013-03-10 06:37:00,
2013-03-10 00:42:00,30.1,27.8,29.80,NE,40,23.0,23.0,91,0.00,,,0.00,0,Wunderground v.1.15,2013-03-10 06:42:00,
2013-03-10 00:48:00,30.1,27.8,29.80,North,355,24.0,24.0,91,0.00,,,0.00,0,Wunderground v.1.15,2013-03-10 06:48:00,
2013-03-10 00:53:00,30.2,27.9,29.80,NNW,348,14.0,22.0,91,0.00,,,0.00,0,Wunderground v.1.15,2013-03-10 06:53:00,
2013-03-10 00:58:00,30.2,27.9,29.80,North,349,27.0,27.0,91,0.00,,,0.00,0,Wunderground v.1.15,2013-03-10 06:58:00,
2013-03-10 01:03:00,30.1,27.8,29.80,NNW,348,23.0,23.0,91,0.00,,,0.00,0,Wunderground v.1.15,2013-03-10 07:03:00,
2013-03-10 01:08:00,30.1,27.8,29.81,NNW,329,24.0,24.0,91,0.00,,,0.00,0,Wunderground v.1.15,2013-03-10 07:08:00,
2013-03-10 01:14:00,30.0,27.7,29.80,North,350,12.0,23.0,91,0.00,,,0.00,0,Wunderground v.1.15,2013-03-10 07:14:00,
2013-03-10 01:19:00,29.9,27.6,29.80,NNW,333,19.0,27.0,91,0.00,,,0.00,0,Wunderground v.1.15,2013-03-10 07:19:00,
2013-03-10 01:24:00,29.8,27.2,29.81,North,355,16.0,21.0,90,0.00,,,0.00,0,Wunderground v.1.15,2013-03-10 07:24:00,
2013-03-10 01:29:00,29.8,27.2,29.81,North,5,24.0,24.0,90,0.00,,,0.00,0,Wunderground v.1.15,2013-03-10 07:29:00,
2013-03-10 01:34:00,29.8,27.2,29.81,North,360,18.0,22.0,90,0.00,,,0.00,0,Wunderground v.1.15,2013-03-10 07:34:00,
2013-03-10 01:40:00,29.8,27.2,29.81,NNE,22,15.0,18.0,90,0.00,,,0.00,0,Wunderground v.1.15,2013-03-10 07:40:00,
2013-03-10 01:45:00,29.8,27.2,29.81,North,9,19.0,19.0,90,0.00,,,0.00,0,Wunderground v.1.15,2013-03-10 07:45:00,
2013-03-10 01:50:00,29.7,27.1,29.81,NNW,340,9.0,16.0,90,0.00,,,0.00,0,Wunderground v.1.15,2013-03-10 07:50:00,
2013-03-10 01:55:00,29.8,27.2,29.81,NW,310,13.0,20.0,90,0.00,,,0.00,0,Wunderground v.1.15,2013-03-10 07:55:00,
2013-03-10 03:00:00,29.6,27.3,29.81,NNW,333,22.0,22.0,91,0.00,,,0.00,0,Wunderground v.1.15,2013-03-10 08:00:00,
2013-03-10 03:05:00,29.3,26.7,29.82,North,355,17.0,28.0,90,0.00,,,0.00,0,Wunderground v.1.15,2013-03-10 08:05:00,
2013-03-10 03:10:00,29.0,26.7,29.81,North,9,21.0,30.0,91,0.00,,,0.00,0,Wunderground v.1.15,2013-03-10 08:10:00,
2013-03-10 03:15:00,28.4,25.8,29.82,NNW,337,18.0,32.0,90,0.00,,,0.00,0,Wunderground v.1.15,2013-03-10 08:15:00,
2013-03-10 03:20:00,28.0,25.4,29.82,NNW,331,13.0,21.0,90,0.00,,,0.00,0,Wunderground v.1.15,2013-03-10 08:20:00,
2013-03-10 03:25:00,27.7,25.2,29.83,NNW,348,17.0,29.0,90,0.00,,,0.00,0,Wunderground v.1.15,2013-03-10 08:25:00,
2013-03-10 03:30:00,27.7,25.2,29.83,North,11,21.0,24.0,90,0.00,,,0.00,0,Wunderground v.1.15,2013-03-10 08:30:00,
2013-03-10 03:35:00,27.6,25.1,29.83,NNW,346,32.0,35.0,90,0.00,,,0.00,0,Wunderground v.1.15,2013-03-10 08:35:00,
2013-03-10 03:40:00,27.2,24.7,29.83,North,5,28.0,28.0,90,0.00,,,0.00,0,Wunderground v.1.15,2013-03-10 08:40:00,
2013-03-10 03:45:00,27.1,24.6,29.84,NNW,336,17.0,28.0,90,0.00,,,0.00,0,Wunderground v.1.15,2013-03-10 08:45:00,
2013-03-10 03:50:00,26.6,24.1,29.84,NW,319,18.0,21.0,90,0.00,,,0.00,0,Wunderground v.1.15,2013-03-10 08:50:00,
2013-03-10 03:55:00,25.9,23.4,29.84,NW,326,13.0,28.0,90,0.00,,,0.00,0,Wunderground v.1.15,2013-03-10 08:55:00,
2013-03-10 04:00:00,25.4,22.9,29.85,North,351,24.0,27.0,90,0.00,,,0.00,0,Wunderground v.1.15,2013-03-10 09:00:00,
2013-03-10 04:05:00,25.3,22.8,29.85,NNW,340,14.0,33.0,90,0.00,,,0.00,0,Wunderground v.1.15,2013-03-10 09:05:00,
2013-03-10 04:10:00,25.2,22.7,29.85,North,9,25.0,25.0,90,0.00,,,0.00,0,Wunderground v.1.15,2013-03-10 09:10:00,
2013-03-10 04:15:00,25.0,22.5,29.85,NW,325,20.0,29.0,90,0.00,,,0.00,0,Wunderground v.1.15,2013-03-10 09:15:00,
2013-03-10 04:20:00,24.5,22.0,29.86,NNW,343,17.0,28.0,90,0.00,,,0.00,0,Wunderground v.1.15,2013-03-10 09:20:00,
2013-03-10 04:25:00,24.3,21.5,29.85,NNW,331,18.0,28.0,89,0.00,,,0.00,0,Wunderground v.1.15,2013-03-10 09:25:00,
2013-03-10 04:30:00,24.3,21.5,29.86,NNW,337,11.0,20.0,89,0.00,,,0.00,0,Wunderground v.1.15,2013-03-10 09:30:00,
2013-03-10 04:35:00,24.1,21.3,29.86,North,5,19.0,32.0,89,0.00,,,0.00,0,Wunderground v.1.15,2013-03-10 09:35:00,
2013-03-10 04:40:00,23.9,21.1,29.86,NNW,331,23.0,29.0,89,0.00,,,0.00,0,Wunderground v.1.15,2013-03-10 09:40:00,
2013-03-10 04:45:00,23.8,21.0,29.86,WNW,302,16.0,29.0,89,0.00,,,0.00,0,Wunderground v.1.15,2013-03-10 09:45:00,
2013-03-10 04:50:00,23.4,20.6,29.86,NNW,329,22.0,23.0,89,0.00,,,0.00,0,Wunderground v.1.15,2013-03-10 09:50:00,
2013-03-10 04:55:00,23.0,20.2,29.86,North,349,27.0,31.0,89,0.00,,,0.00,0,Wunderground v.1.15,2013-03-10 09:55:00,
2013-03-10 05:00:00,22.8,19.8,29.86,NW,322,23.0,29.0,88,0.00,,,0.00,0,Wunderground v.1.15,2013-03-10 10:00:00,
2013-03-10 05:05:00,22.9,19.9,29.86,NNW,330,15.0,33.0,88,0.00,,,0.00,0,Wunderground v.1.15,2013-03-10 10:05:00,
2013-03-10 05:10:00,22.9,19.9,29.86,NW,326,24.0,27.0,88,0.00,,,0.00,0,Wunderground v.1.15,2013-03-10 10:10:00,
2013-03-10 05:15:00,22.8,19.8,29.86,NNW,347,21.0,38.0,88,0.00,,,0.00,0,Wunderground v.1.15,2013-03-10 10:15:00,
2013-03-10 05:20:00,22.6,19.6,29.86,NNW,327,15.0,25.0,88,0.00,,,0.00,0,Wunderground v.1.15,2013-03-10 10:20:00,
2013-03-10 05:25:00,22.2,19.2,29.87,North,350,16.0,39.0,88,0.00,,,0.00,0,Wunderground v.1.15,2013-03-10 10:25:00,
2013-03-10 05:30:00,21.3,18.3,29.87,NNW,344,22.0,24.0,88,0.00,,,0.00,0,Wunderground v.1.15,2013-03-10 10:30:00,
2013-03-10 05:35:00,21.1,18.1,29.88,NNW,333,25.0,35.0,88,0.00,,,0.00,0,Wunderground v.1.15,2013-03-10 10:35:00,
2013-03-10 05:40:00,21.0,18.3,29.88,NNW,331,19.0,23.0,89,0.00,,,0.00,0,Wunderground v.1.15,2013-03-10 10:40:00,
2013-03-10 05:45:00,21.1,18.4,29.88,North,360,21.0,30.0,89,0.00,,,0.00,0,Wunderground v.1.15,2013-03-10 10:45:00,
2013-03-10 05:51:00,21.0,18.3,29.89,NNW,336,20.0,29.0,89,0.00,,,0.00,0,Wunderground v.1.15,2013-03-10 10:51:00,
2013-03-10 05:56:00,21.1,18.4,29.89,NNW,340,23.0,32.0,89,0.00,,,0.00,0,Wunderground v.1.15,2013-03-10 10:56:00,
2013-03-10 06:01:00,21.1,18.4,29.90,NNW,348,18.0,19.0,89,0.00,,,0.00,0,Wunderground v.1.15,2013-03-10 11:01:00,
2013-03-10 06:06:00,21.1,18.4,29.90,NW,311,19.0,27.0,89,0.00,,,0.00,0,Wunderground v.1.15,2013-03-10 11:06:00,
2013-03-10 06:11:00,20.3,17.6,29.90,NNW,338,30.0,31.0,89,0.00,,,0.00,0,Wunderground v.1.15,2013-03-10 11:11:00,
2013-03-10 06:16:00,19.8,17.1,29.90,NNW,335,18.0,31.0,89,0.00,,,0.00,0,Wunderground v.1.15,2013-03-10 11:16:00,
2013-03-10 06:21:00,19.5,16.8,29.90,NW,325,20.0,27.0,89,0.00,,,0.00,0,Wunderground v.1.15,2013-03-10 11:21:00,
2013-03-10 06:26:00,19.3,16.6,29.91,North,360,13.0,32.0,89,0.00,,,0.00,0,Wunderground v.1.15,2013-03-10 11:26:00,
2013-03-10 06:31:00,19.1,16.4,29.91,North,350,20.0,26.0,89,0.00,,,0.00,0,Wunderground v.1.15,2013-03-10 11:31:00,
2013-03-10 06:36:00,18.8,15.8,29.91,NNW,344,21.0,34.0,88,0.00,,,0.00,0,Wunderground v.1.15,2013-03-10 11:36:00,
2013-03-10 06:41:00,18.8,15.8,29.92,NNW,338,16.0,28.0,88,0.00,,,0.00,0,Wunderground v.1.15,2013-03-10 11:41:00,
2013-03-10 06:46:00,18.6,15.6,29.92,NW,315,20.0,33.0,88,0.00,,,0.00,0,Wunderground v.1.15,2013-03-10 11:46:00,
2013-03-10 06:51:00,18.3,15.3,29.92,NNW,338,16.0,30.0,88,0.00,,,0.00,0,Wunderground v.1.15,2013-03-10 11:51:00,
2013-03-10 06:56:00,18.3,15.3,29.93,NNE,15,27.0,34.0,88,0.00,,,0.00,0,Wunderground v.1.15,2013-03-10 11:56:00,
2013-03-10 07:01:00,18.3,15.3,29.93,NW,314,16.0,26.0,88,0.00,,,0.00,0,Wunderground v.1.15,2013-03-10 12:01:00,
2013-03-10 07:06:00,18.1,15.1,29.93,North,5,19.0,33.0,88,0.00,,,0.00,0,Wunderground v.1.15,2013-03-10 12:06:00,
2013-03-10 07:11:00,18.1,15.1,29.93,WNW,290,18.0,29.0,88,0.00,,,0.00,0,Wunderground v.1.15,2013-03-10 12:11:00,
2013-03-10 07:16:00,18.1,15.1,29.93,North,355,13.0,30.0,88,0.00,,,0.00,0,Wunderground v.1.15,2013-03-10 12:16:00,
2013-03-10 07:21:00,18.0,15.0,29.92,NNW,348,23.0,31.0,88,0.00,,,0.00,0,Wunderground v.1.15,2013-03-10 12:21:00,
2013-03-10 07:26:00,17.9,14.9,29.92,North,355,29.0,32.0,88,0.00,,,0.00,0,Wunderground v.1.15,2013-03-10 12:26:00,
2013-03-10 07:31:00,17.8,14.8,29.92,NNW,331,27.0,38.0,88,0.00,,,0.00,0,Wunderground v.1.15,2013-03-10 12:31:00,
2013-03-10 07:36:00,17.7,14.8,29.92,NNW,334,29.0,38.0,88,0.00,,,0.00,0,Wunderground v.1.15,2013-03-10 12:36:00,
2013-03-10 07:41:00,17.8,14.8,29.92,NNW,328,15.0,28.0,88,0.00,,,0.00,0,Wunderground v.1.15,2013-03-10 12:41:00,
2013-03-10 07:46:00,17.6,14.7,29.92,NNW,337,24.0,29.0,88,0.00,,,0.00,0,Wunderground v.1.15,2013-03-10 12:46:00,
2013-03-10 07:51:00,17.5,14.6,29.92,NNW,336,17.0,32.0,88,0.00,,,0.00,0,Wunderground v.1.15,2013-03-10 12:51:00,
2013-03-10 07:56:00,17.5,14.6,29.93,NNW,341,26.0,34.0,88,0.00,,,0.00,0,Wunderground v.1.15,2013-03-10 12:56:00,
2013-03-10 08:01:00,17.4,14.5,29.93,NNW,348,18.0,31.0,88,0.00,,,0.00,0,Wunderground v.1.15,2013-03-10 13:01:00,
2013-03-10 08:06:00,17.5,14.6,29.93,NW,321,12.0,31.0,88,0.00,,,0.00,0,Wunderground v.1.15,2013-03-10 13:06:00,
2013-03-10 08:11:00,17.6,14.7,29.94,North,350,20.0,24.0,88,0.00,,,0.00,0,Wunderground v.1.15,2013-03-10 13:11:00,
2013-03-10 08:16:00,17.7,14.8,29.95,North,360,11.0,29.0,88,0.00,,,0.00,0,Wunderground v.1.15,2013-03-10 13:16:00,
2013-03-10 08:21:00,17.7,15.0,29.96,NNW,347,22.0,27.0,89,0.00,,,0.00,7,Wunderground v.1.15,2013-03-10 13:21:00,
2013-03-10 08:26:00,17.8,15.1,29.97,NNW,335,28.0,31.0,89,0.00,,,0.00,7,Wunderground v.1.15,2013-03-10 13:26:00,
2013-03-10 08:31:00,17.8,15.1,29.97,NNW,336,12.0,24.0,89,0.00,,,0.00,7,Wunderground v.1.15,2013-03-10 13:31:00,
2013-03-10 08:36:00,17.8,15.1,29.97,NNW,347,19.0,31.0,89,0.00,,,0.00,9,Wunderground v.1.15,2013-03-10 13:36:00,
2013-03-10 08:41:00,17.9,15.2,29.97,North,355,23.0,25.0,89,0.00,,,0.00,11,Wunderground v.1.15,2013-03-10 13:41:00,
2013-03-10 08:46:00,18.0,15.3,29.97,NNW,333,10.0,28.0,89,0.00,,,0.00,12,Wunderground v.1.15,2013-03-10 13:46:00,
2013-03-10 08:51:00,18.1,15.4,29.97,NNW,335,19.0,23.0,89,0.00,,,0.00,14,Wunderground v.1.15,2013-03-10 13:51:00,
2013-03-10 08:56:00,18.2,15.5,29.97,NW,320,15.0,28.0,89,0.00,,,0.00,16,Wunderground v.1.15,2013-03-10 13:56:00,
2013-03-10 09:01:00,18.5,15.8,29.98,NNW,344,19.0,19.0,89,0.00,,,0.00,21,Wunderground v.1.15,2013-03-10 14:01:00,
2013-03-10 09:06:00,18.7,16.3,29.97,North,355,26.0,30.0,90,0.00,,,0.00,33,Wunderground v.1.15,2013-03-10 14:06:00,
2013-03-10 09:11:00,18.8,16.1,29.97,NNW,329,20.0,33.0,89,0.00,,,0.00,40,Wunderground v.1.15,2013-03-10 14:11:00,
2013-03-10 09:16:00,19.0,16.6,29.97,NNW,334,20.0,33.0,90,0.00,,,0.00,58,Wunderground v.1.15,2013-03-10 14:16:00,
2013-03-10 09:21:00,19.1,16.7,29.97,NW,326,20.0,28.0,90,0.00,,,0.00,77,Wunderground v.1.15,2013-03-10 14:21:00,
2013-03-10 09:26:00,19.0,16.3,29.97,NW,325,33.0,38.0,89,0.00,,,0.00,90,Wunderground v.1.15,2013-03-10 14:26:00,
2013-03-10 09:31:00,18.9,16.2,29.98,NNW,340,21.0,31.0,89,0.00,,,0.00,84,Wunderground v.1.15,2013-03-10 14:31:00,
2013-03-10 09:36:00,18.9,16.2,29.98,NNW,338,18.0,31.0,89,0.00,,,0.00,81,Wunderground v.1.15,2013-03-10 14:36:00,
2013-03-10 09:41:00,18.6,15.9,29.98,NNW,346,29.0,38.0,89,0.00,,,0.00,83,Wunderground v.1.15,2013-03-10 14:41:00,
2013-03-10 09:46:00,18.4,15.7,29.97,North,5,25.0,40.0,89,0.00,,,0.00,83,Wunderground v.1.15,2013-03-10 14:46:00,
2013-03-10 09:51:00,18.4,15.7,29.98,NW,320,11.0,31.0,89,0.00,,,0.00,88,Wunderground v.1.15,2013-03-10 14:51:00,
2013-03-10 09:56:00,18.5,15.8,29.99,North,350,25.0,34.0,89,0.00,,,0.00,86,Wunderground v.1.15,2013-03-10 14:56:00,
2013-03-10 10:01:00,18.5,15.8,29.98,North,5,12.0,32.0,89,0.00,,,0.00,98,Wunderground v.1.15,2013-03-10 15:01:00,
2013-03-10 10:06:00,18.5,15.8,29.98,North,355,22.0,32.0,89,0.00,,,0.00,79,Wunderground v.1.15,2013-03-10 15:06:00,
2013-03-10 10:11:00,18.6,15.9,29.99,North,350,17.0,33.0,89,0.00,,,0.00,91,Wunderground v.1.15,2013-03-10 15:11:00,
2013-03-10 10:16:00,18.7,16.0,29.98,NNW,345,14.0,33.0,89,0.00,,,0.00,121,Wunderground v.1.15,2013-03-10 15:16:00,
2013-03-10 10:21:00,18.8,16.1,29.99,NNW,337,19.0,30.0,89,0.00,,,0.00,118,Wunderground v.1.15,2013-03-10 15:21:00,
2013-03-10 10:26:00,18.9,16.2,30.00,NNW,332,22.0,31.0,89,0.00,,,0.00,153,Wunderground v.1.15,2013-03-10 15:26:00,
2013-03-10 10:31:00,19.0,16.3,30.00,NNW,334,23.0,33.0,89,0.00,,,0.00,137,Wunderground v.1.15,2013-03-10 15:31:00,
2013-03-10 10:36:00,19.0,16.0,30.00,NW,319,17.0,33.0,88,0.00,,,0.00,216,Wunderground v.1.15,2013-03-10 15:36:00,
2013-03-10 10:41:00,19.1,16.4,30.00,NNW,331,25.0,28.0,89,0.00,,,0.00,207,Wunderground v.1.15,2013-03-10 15:41:00,
2013-03-10 10:46:00,19.1,16.1,30.01,NNW,340,13.0,32.0,88,0.00,,,0.00,158,Wunderground v.1.15,2013-03-10 15:46:00,
2013-03-10 10:51:00,19.0,16.0,30.01,NW,316,31.0,31.0,88,0.00,,,0.00,151,Wunderground v.1.15,2013-03-10 15:51:00,
2013-03-10 10:56:00,18.9,15.9,30.00,NNW,344,21.0,33.0,88,0.00,,,0.00,199,Wunderground v.1.15,2013-03-10 15:56:00,
2013-03-10 11:01:00,19.2,16.2,30.00,NW,308,18.0,28.0,88,0.00,,,0.00,216,Wunderground v.1.15,2013-03-10 16:01:00,
2013-03-10 11:06:00,19.1,16.1,30.00,North,5,31.0,36.0,88,0.00,,,0.00,162,Wunderground v.1.15,2013-03-10 16:06:00,
2013-03-10 11:11:00,19.3,16.3,30.01,NNW,329,23.0,23.0,88,0.00,,,0.00,186,Wunderground v.1.15,2013-03-10 16:11:00,
2013-03-10 11:16:00,19.4,16.4,30.00,NNW,327,20.0,30.0,88,0.00,,,0.00,234,Wunderground v.1.15,2013-03-10 16:16:00,
2013-03-10 11:21:00,19.6,16.6,30.00,NW,315,12.0,24.0,88,0.00,,,0.00,172,Wunderground v.1.15,2013-03-10 16:21:00,
2013-03-10 11:26:00,19.4,16.4,30.01,NW,318,24.0,36.0,88,0.00,,,0.00,132,Wunderground v.1.15,2013-03-10 16:26:00,
2013-03-10 11:31:00,19.4,16.4,30.01,NNW,338,20.0,28.0,88,0.00,,,0.00,155,Wunderground v.1.15,2013-03-10 16:31:00,
2013-03-10 11:36:00,19.2,16.2,30.01,NNW,344,15.0,34.0,88,0.00,,,0.00,237,Wunderground v.1.15,2013-03-10 16:36:00,
2013-03-10 11:41:00,19.1,15.9,30.01,North,5,29.0,30.0,87,0.00,,,0.00,255,Wunderground v.1.15,2013-03-10 16:41:00,
2013-03-10 11:46:00,19.2,16.0,30.01,NNW,344,27.0,35.0,87,0.00,,,0.00,359,Wunderground v.1.15,2013-03-10 16:46:00,
2013-03-10 11:51:00,19.3,16.1,30.01,NNW,342,25.0,34.0,87,0.00,,,0.00,327,Wunderground v.1.15,2013-03-10 16:51:00,
2013-03-10 11:56:00,19.2,16.0,30.01,NW,313,19.0,34.0,87,0.00,,,0.00,236,Wunderground v.1.15,2013-03-10 16:56:00,
2013-03-10 12:02:00,19.1,15.9,30.01,North,350,22.0,30.0,87,0.00,,,0.00,243,Wunderground v.1.15,2013-03-10 17:02:00,
2013-03-10 12:07:00,19.0,15.5,30.02,NNW,336,24.0,34.0,86,0.00,,,0.00,279,Wunderground v.1.15,2013-03-10 17:07:00,
2013-03-10 12:12:00,19.2,15.7,30.02,NNW,344,29.0,30.0,86,0.00,,,0.00,276,Wunderground v.1.15,2013-03-10 17:12:00,
2013-03-10 12:17:00,19.1,15.6,30.02,NNW,329,19.0,34.0,86,0.00,,,0.00,301,Wunderground v.1.15,2013-03-10 17:17:00,
2013-03-10 12:22:00,19.1,15.6,30.02,NW,315,20.0,27.0,86,0.00,,,0.00,322,Wunderground v.1.15,2013-03-10 17:22:00,
2013-03-10 12:27:00,19.5,18.1,30.02,NNW,346,22.0,30.0,94,0.00,,,0.00,339,Wunderground v.1.15,2013-03-10 17:27:00,
2013-03-10 12:32:00,19.7,16.2,30.02,NNW,335,19.0,31.0,86,0.00,,,0.00,334,Wunderground v.1.15,2013-03-10 17:32:00,
2013-03-10 12:37:00,19.4,15.6,30.02,NNW,338,25.0,35.0,85,0.00,,,0.00,322,Wunderground v.1.15,2013-03-10 17:37:00,
2013-03-10 12:42:00,19.4,15.4,30.02,NNW,341,21.0,30.0,84,0.00,,,0.00,357,Wunderground v.1.15,2013-03-10 17:42:00,
2013-03-10 12:47:00,20.0,16.2,30.02,NNW,344,21.0,30.0,85,0.00,,,0.00,415,Wunderground v.1.15,2013-03-10 17:47:00,
2013-03-10 12:52:00,20.4,16.6,30.02,NNW,327,25.0,29.0,85,0.00,,,0.00,497,Wunderground v.1.15,2013-03-10 17:52:00,
2013-03-10 12:57:00,20.1,16.0,30.02,NNW,336,14.0,33.0,84,0.00,,,0.00,492,Wunderground v.1.15,2013-03-10 17:57:00,
2013-03-10 13:02:00,20.8,16.7,30.02,NW,323,19.0,26.0,84,0.00,,,0.00,394,Wunderground v.1.15,2013-03-10 18:02:00,
2013-03-10 13:07:00,20.7,16.6,30.02,NNW,333,15.0,30.0,84,0.00,,,0.00,501,Wunderground v.1.15,2013-03-10 18:07:00,
2013-03-10 13:12:00,20.8,16.7,30.02,North,5,16.0,27.0,84,0.00,,,0.00,461,Wunderground v.1.15,2013-03-10 18:12:00,
2013-03-10 13:17:00,20.8,16.7,30.02,NNW,340,26.0,30.0,84,0.00,,,0.00,396,Wunderground v.1.15,2013-03-10 18:17:00,
2013-03-10 13:22:00,20.4,16.1,30.01,NW,323,20.0,37.0,83,0.00,,,0.00,462,Wunderground v.1.15,2013-03-10 18:22:00,
2013-03-10 13:27:00,20.8,16.7,30.02,North,360,20.0,37.0,84,0.00,,,0.00,563,Wunderground v.1.15,2013-03-10 18:27:00,
2013-03-10 13:32:00,21.1,16.7,30.02,North,360,24.0,33.0,83,0.00,,,0.00,461,Wunderground v.1.15,2013-03-10 18:32:00,
2013-03-10 13:37:00,20.8,16.5,30.02,NNW,331,25.0,41.0,83,0.00,,,0.00,411,Wunderground v.1.15,2013-03-10 18:37:00,
2013-03-10 13:42:00,21.1,17.0,30.02,NNW,331,19.0,29.0,84,0.00,,,0.00,459,Wunderground v.1.15,2013-03-10 18:42:00,
2013-03-10 13:47:00,21.0,16.6,30.02,NNW,340,14.0,33.0,83,0.00,,,0.00,492,Wunderground v.1.15,2013-03-10 18:47:00,
2013-03-10 13:52:00,21.2,16.8,30.02,NW,325,29.0,33.0,83,0.00,,,0.00,448,Wunderground v.1.15,2013-03-10 18:52:00,
2013-03-10 13:57:00,21.1,17.0,30.02,NW,313,19.0,33.0,84,0.00,,,0.00,415,Wunderground v.1.15,2013-03-10 18:57:00,
2013-03-10 14:02:00,20.8,16.7,30.01,North,355,21.0,29.0,84,0.00,,,0.00,381,Wunderground v.1.15,2013-03-10 19:02:00,
2013-03-10 14:07:00,20.9,17.1,30.01,NNW,348,39.0,39.0,85,0.00,,,0.00,352,Wunderground v.1.15,2013-03-10 19:07:00,
2013-03-10 14:12:00,20.9,17.1,30.01,NNW,330,19.0,31.0,85,0.00,,,0.00,362,Wunderground v.1.15,2013-03-10 19:12:00,
2013-03-10 14:17:00,20.8,16.7,30.01,NNW,340,31.0,38.0,84,0.00,,,0.00,422,Wunderground v.1.15,2013-03-10 19:17:00,
2013-03-10 14:22:00,20.7,16.1,30.00,NNW,346,21.0,37.0,82,0.00,,,0.00,403,Wunderground v.1.15,2013-03-10 19:22:00,
2013-03-10 14:27:00,21.2,17.1,30.01,North,355,21.0,37.0,84,0.00,,,0.00,466,Wunderground v.1.15,2013-03-10 19:27:00,
2013-03-10 14:32:00,21.3,16.9,30.00,WNW,302,26.0,34.0,83,0.00,,,0.00,436,Wunderground v.1.15,2013-03-10 19:32:00,
2013-03-10 14:37:00,21.4,17.0,30.00,NNW,327,34.0,34.0,83,0.00,,,0.00,468,Wunderground v.1.15,2013-03-10 19:37:00,
2013-03-10 14:42:00,21.8,17.4,30.00,NNW,339,21.0,25.0,83,0.00,,,0.00,401,Wunderground v.1.15,2013-03-10 19:42:00,
2013-03-10 14:47:00,21.6,17.2,30.00,North,355,23.0,32.0,83,0.00,,,0.00,536,Wunderground v.1.15,2013-03-10 19:47:00,
2013-03-10 14:52:00,21.9,17.5,30.00,NNW,335,12.0,27.0,83,0.00,,,0.00,496,Wunderground v.1.15,2013-03-10 19:52:00,
2013-03-10 14:57:00,22.1,17.7,30.00,NW,305,21.0,34.0,83,0.00,,,0.00,740,Wunderground v.1.15,2013-03-10 19:57:00,
2013-03-10 15:02:00,22.8,18.7,30.00,NNW,346,21.0,32.0,84,0.00,,,0.00,439,Wunderground v.1.15,2013-03-10 20:02:00,
2013-03-10 15:07:00,22.5,18.1,29.99,NNW,341,30.0,33.0,83,0.00,,,0.00,357,Wunderground v.1.15,2013-03-10 20:07:00,
2013-03-10 15:12:00,22.5,18.4,29.99,North,10,15.0,29.0,84,0.00,,,0.00,410,Wunderground v.1.15,2013-03-10 20:12:00,
2013-03-10 15:17:00,22.3,17.9,29.99,NNW,337,16.0,31.0,83,0.00,,,0.00,401,Wunderground v.1.15,2013-03-10 20:17:00,
2013-03-10 15:22:00,22.2,18.1,30.00,NNW,342,16.0,23.0,84,0.00,,,0.00,357,Wunderground v.1.15,2013-03-10 20:22:00,
2013-03-10 15:27:00,22.1,18.0,30.00,NW,317,24.0,33.0,84,0.00,,,0.00,346,Wunderground v.1.15,2013-03-10 20:27:00,
2013-03-10 15:32:00,22.1,17.7,30.00,NW,306,15.0,28.0,83,0.00,,,0.00,276,Wunderground v.1.15,2013-03-10 20:32:00,
2013-03-10 15:37:00,22.1,17.7,30.00,North,350,28.0,31.0,83,0.00,,,0.00,320,Wunderground v.1.15,2013-03-10 20:37:00,
2013-03-10 15:42:00,22.1,17.7,30.00,NNW,327,20.0,26.0,83,0.00,,,0.00,257,Wunderground v.1.15,2013-03-10 20:42:00,
2013-03-10 15:47:00,22.0,17.6,30.00,North,355,8.0,26.0,83,0.00,,,0.00,230,Wunderground v.1.15,2013-03-10 20:47:00,
2013-03-10 15:52:00,22.0,17.6,30.00,North,5,12.0,26.0,83,0.00,,,0.00,264,Wunderground v.1.15,2013-03-10 20:52:00,
2013-03-10 15:57:00,21.8,17.4,30.00,NW,304,12.0,28.0,83,0.00,,,0.00,223,Wunderground v.1.15,2013-03-10 20:57:00,
2013-03-10 16:02:00,21.6,17.2,30.00,NNW,347,13.0,30.0,83,0.00,,,0.00,236,Wunderground v.1.15,2013-03-10 21:02:00,
2013-03-10 16:07:00,21.8,17.4,30.00,North,355,18.0,30.0,83,0.00,,,0.00,246,Wunderground v.1.15,2013-03-10 21:07:00,
2013-03-10 16:12:00,21.8,17.4,30.00,NW,324,20.0,28.0,83,0.00,,,0.00,241,Wunderground v.1.15,2013-03-10 21:12:00,
2013-03-10 16:17:00,21.6,17.2,30.01,North,355,18.0,28.0,83,0.00,,,0.00,241,Wunderground v.1.15,2013-03-10 21:17:00,
2013-03-10 16:22:00,21.9,17.5,30.01,NNW,329,19.0,27.0,83,0.00,,,0.00,309,Wunderground v.1.15,2013-03-10 21:22:00,
2013-03-10 16:27:00,22.0,17.6,30.01,North,360,24.0,31.0,83,0.00,,,0.00,304,Wunderground v.1.15,2013-03-10 21:27:00,
2013-03-10 16:32:00,22.1,17.7,30.01,NW,323,16.0,25.0,83,0.00,,,0.00,246,Wunderground v.1.15,2013-03-10 21:32:00,
2013-03-10 16:37:00,22.2,18.1,30.01,NW,315,16.0,25.0,84,0.00,,,0.00,260,Wunderground v.1.15,2013-03-10 21:37:00,
2013-03-10 16:42:00,22.0,17.3,30.01,NNW,333,10.0,31.0,82,0.00,,,0.00,371,Wunderground v.1.15,2013-03-10 21:42:00,
2013-03-10 16:47:00,22.0,17.3,30.01,North,349,14.0,31.0,82,0.00,,,0.00,232,Wunderground v.1.15,2013-03-10 21:47:00,
2013-03-10 16:52:00,22.0,17.3,30.01,North,355,17.0,23.0,82,0.00,,,0.00,197,Wunderground v.1.15,2013-03-10 21:52:00,
2013-03-10 16:57:00,21.8,17.2,30.00,NNW,345,21.0,32.0,82,0.00,,,0.00,230,Wunderground v.1.15,2013-03-10 21:57:00,
2013-03-10 17:02:00,21.8,17.4,30.01,NNW,346,21.0,29.0,83,0.00,,,0.00,241,Wunderground v.1.15,2013-03-10 22:02:00,
2013-03-10 17:07:00,22.0,17.6,30.01,NNW,336,17.0,29.0,83,0.00,,,0.00,213,Wunderground v.1.15,2013-03-10 22:07:00,
2013-03-10 17:13:00,22.0,17.3,30.01,NW,321,14.0,26.0,82,0.00,,,0.00,246,Wunderground v.1.15,2013-03-10 22:13:00,
2013-03-10 17:17:00,22.0,17.3,30.01,NNW,329,23.0,29.0,82,0.00,,,0.00,188,Wunderground v.1.15,2013-03-10 22:17:00,
2013-03-10 17:23:00,22.0,17.6,30.01,North,350,18.0,29.0,83,0.00,,,0.00,183,Wunderground v.1.15,2013-03-10 22:23:00,
2013-03-10 17:28:00,21.9,17.5,30.02,NNW,348,15.0,29.0,83,0.00,,,0.00,172,Wunderground v.1.15,2013-03-10 22:28:00,
2013-03-10 17:33:00,21.5,16.9,30.02,NNW,329,12.0,24.0,82,0.00,,,0.00,149,Wunderground v.1.15,2013-03-10 22:33:00,
2013-03-10 17:38:00,21.4,17.0,30.02,NNW,337,16.0,28.0,83,0.00,,,0.00,116,Wunderground v.1.15,2013-03-10 22:38:00,
2013-03-10 17:43:00,21.3,16.9,30.02,North,5,17.0,27.0,83,0.00,,,0.00,118,Wunderground v.1.15,2013-03-10 22:43:00,
2013-03-10 17:48:00,21.2,16.8,30.02,NNW,328,14.0,27.0,83,0.00,,,0.00,118,Wunderground v.1.15,2013-03-10 22:48:00,
2013-03-10 17:53:00,21.1,16.7,30.02,NNW,337,11.0,21.0,83,0.00,,,0.00,118,Wunderground v.1.15,2013-03-10 22:53:00,
2013-03-10 17:58:00,21.1,16.7,30.02,NNW,341,11.0,21.0,83,0.00,,,0.00,127,Wunderground v.1.15,2013-03-10 22:58:00,
2013-03-10 18:03:00,20.9,16.5,30.02,NNW,344,11.0,24.0,83,0.00,,,0.00,144,Wunderground v.1.15,2013-03-10 23:03:00,
2013-03-10 18:08:00,20.8,16.5,30.02,NNW,340,23.0,27.0,83,0.00,,,0.00,151,Wunderground v.1.15,2013-03-10 23:08:00,
2013-03-10 18:13:00,21.0,16.9,30.02,NNW,334,22.0,32.0,84,0.00,,,0.00,151,Wunderground v.1.15,2013-03-10 23:13:00,
2013-03-10 18:18:00,21.0,16.9,30.02,NW,322,15.0,32.0,84,0.00,,,0.00,137,Wunderground v.1.15,2013-03-10 23:18:00,
2013-03-10 18:23:00,20.7,16.4,30.02,NNW,339,18.0,33.0,83,0.00,,,0.00,120,Wunderground v.1.15,2013-03-10 23:23:00,
2013-03-10 18:28:00,20.6,16.5,30.02,North,355,19.0,33.0,84,0.00,,,0.00,107,Wunderground v.1.15,2013-03-10 23:28:00,
2013-03-10 18:33:00,20.4,16.3,30.02,NW,325,22.0,26.0,84,0.00,,,0.00,132,Wunderground v.1.15,2013-03-10 23:33:00,
2013-03-10 18:38:00,20.4,16.3,30.02,NNW,335,13.0,32.0,84,0.00,,,0.00,121,Wunderground v.1.15,2013-03-10 23:38:00,
2013-03-10 18:43:00,20.4,16.3,30.02,North,350,22.0,24.0,84,0.00,,,0.00,86,Wunderground v.1.15,2013-03-10 23:43:00,
2013-03-10 18:48:00,20.3,16.2,30.02,North,349,20.0,29.0,84,0.00,,,0.00,95,Wunderground v.1.15,2013-03-10 23:48:00,
2013-03-10 18:53:00,20.3,16.2,30.02,NNW,339,13.0,29.0,84,0.00,,,0.00,88,Wunderground v.1.15,2013-03-10 23:53:00,
2013-03-10 18:58:00,20.1,15.8,30.02,NW,320,22.0,29.0,83,0.00,,,0.00,70,Wunderground v.1.15,2013-03-10 23:58:00,
2013-03-10 19:03:00,20.2,16.1,30.02,NNW,346,21.0,28.0,84,0.00,,,0.00,83,Wunderground v.1.15,2013-03-11 00:03:00,
2013-03-10 19:08:00,20.0,15.7,30.02,NNW,342,25.0,28.0,83,0.00,,,0.00,70,Wunderground v.1.15,2013-03-11 00:08:00,
2013-03-10 19:13:00,19.8,15.5,30.02,NNW,331,14.0,25.0,83,0.00,,,0.00,49,Wunderground v.1.15,2013-03-11 00:13:00,
2013-03-10 19:18:00,19.7,15.1,30.02,NW,326,19.0,32.0,82,0.00,,,0.00,32,Wunderground v.1.15,2013-03-11 00:18:00,
2013-03-10 19:23:00,19.7,15.4,30.03,NNW,335,21.0,28.0,83,0.00,,,0.00,25,Wunderground v.1.15,2013-03-11 00:23:00,
2013-03-10 19:28:00,19.7,15.4,30.03,NNW,346,20.0,32.0,83,0.00,,,0.00,19,Wunderground v.1.15,2013-03-11 00:28:00,
2013-03-10 19:33:00,19.5,15.2,30.03,WNW,284,17.0,28.0,83,0.00,,,0.00,12,Wunderground v.1.15,2013-03-11 00:33:00,
2013-03-10 19:38:00,19.4,15.1,30.03,NNW,340,8.0,29.0,83,0.00,,,0.00,7,Wunderground v.1.15,2013-03-11 00:38:00,
2013-03-10 19:43:00,19.4,15.1,30.03,NNW,340,16.0,25.0,83,0.00,,,0.00,0,Wunderground v.1.15,2013-03-11 00:43:00,
2013-03-10 19:49:00,19.3,15.3,30.04,NNW,338,14.0,29.0,84,0.00,,,0.00,0,Wunderground v.1.15,2013-03-11 00:49:00,
2013-03-10 19:54:00,19.0,15.0,30.03,NW,323,12.0,28.0,84,0.00,,,0.00,0,Wunderground v.1.15,2013-03-11 00:54:00,
2013-03-10 19:59:00,19.0,15.0,30.04,NW,312,16.0,28.0,84,0.00,,,0.00,0,Wunderground v.1.15,2013-03-11 00:59:00,
2013-03-10 20:04:00,19.0,15.0,30.04,NNW,329,17.0,26.0,84,0.00,,,0.00,0,Wunderground v.1.15,2013-03-11 01:04:00,
2013-03-10 20:09:00,19.1,15.3,30.04,NNW,345,8.0,26.0,85,0.00,,,0.00,0,Wunderground v.1.15,2013-03-11 01:09:00,
2013-03-10 20:14:00,19.0,15.2,30.03,NNW,343,15.0,21.0,85,0.00,,,0.00,0,Wunderground v.1.15,2013-03-11 01:14:00,
2013-03-10 20:19:00,18.9,15.1,30.04,NW,311,13.0,23.0,85,0.00,,,0.00,0,Wunderground v.1.15,2013-03-11 01:19:00,
2013-03-10 20:24:00,18.8,15.0,30.04,North,360,8.0,15.0,85,0.00,,,0.00,0,Wunderground v.1.15,2013-03-11 01:24:00,
2013-03-10 20:29:00,18.8,15.0,30.04,North,355,13.0,16.0,85,0.00,,,0.00,0,Wunderground v.1.15,2013-03-11 01:29:00,
2013-03-10 20:34:00,18.9,15.1,30.05,NW,325,13.0,17.0,85,0.00,,,0.00,0,Wunderground v.1.15,2013-03-11 01:34:00,
2013-03-10 20:39:00,19.1,15.3,30.04,NNW,346,11.0,19.0,85,0.00,,,0.00,0,Wunderground v.1.15,2013-03-11 01:39:00,
2013-03-10 20:44:00,19.1,15.3,30.04,NNW,339,16.0,22.0,85,0.00,,,0.00,0,Wunderground v.1.15,2013-03-11 01:44:00,
2013-03-10 20:49:00,19.2,15.4,30.04,NNW,333,13.0,22.0,85,0.00,,,0.00,0,Wunderground v.1.15,2013-03-11 01:49:00,
2013-03-10 20:54:00,19.1,15.3,30.05,NNW,331,9.0,22.0,85,0.00,,,0.00,0,Wunderground v.1.15,2013-03-11 01:54:00,
2013-03-10 20:59:00,19.2,15.4,30.04,NNW,340,12.0,22.0,85,0.00,,,0.00,0,Wunderground v.1.15,2013-03-11 01:59:00,
2013-03-10 21:04:00,19.2,15.4,30.04,WNW,298,14.0,19.0,85,0.00,,,0.00,0,Wunderground v.1.15,2013-03-11 02:04:00,
2013-03-10 21:09:00,19.1,15.6,30.05,NNW,338,12.0,22.0,86,0.00,,,0.00,0,Wunderground v.1.15,2013-03-11 02:09:00,
2013-03-10 21:14:00,19.1,15.3,30.04,NW,322,15.0,22.0,85,0.00,,,0.00,0,Wunderground v.1.15,2013-03-11 02:14:00,
2013-03-10 21:19:00,19.0,15.2,30.04,NW,315,13.0,22.0,85,0.00,,,0.00,0,Wunderground v.1.15,2013-03-11 02:19:00,
2013-03-10 21:24:00,19.0,15.2,30.04,NW,319,16.0,26.0,85,0.00,,,0.00,0,Wunderground v.1.15,2013-03-11 02:24:00,
2013-03-10 21:29:00,18.9,15.1,30.04,NNW,344,9.0,26.0,85,0.00,,,0.00,0,Wunderground v.1.15,2013-03-11 02:29:00,
2013-03-10 21:34:00,18.9,15.1,30.04,NNW,336,12.0,22.0,85,0.00,,,0.00,0,Wunderground v.1.15,2013-03-11 02:34:00,
2013-03-10 21:39:00,18.9,15.4,30.04,NNW,329,14.0,22.0,86,0.00,,,0.00,0,Wunderground v.1.15,2013-03-11 02:39:00,
2013-03-10 21:44:00,18.9,15.4,30.04,NNW,327,15.0,21.0,86,0.00,,,0.00,0,Wunderground v.1.15,2013-03-11 02:44:00,
2013-03-10 21:49:00,19.0,15.5,30.04,NW,324,11.0,21.0,86,0.00,,,0.00,0,Wunderground v.1.15,2013-03-11 02:49:00,
2013-03-10 21:54:00,19.0,15.5,30.04,NNW,331,10.0,23.0,86,0.00,,,0.00,0,Wunderground v.1.15,2013-03-11 02:54:00,
2013-03-10 21:59:00,18.9,15.4,30.03,NW,326,13.0,23.0,86,0.00,,,0.00,0,Wunderground v.1.15,2013-03-11 02:59:00,
2013-03-10 22:04:00,18.9,15.4,30.03,North,351,8.0,15.0,86,0.00,,,0.00,0,Wunderground v.1.15,2013-03-11 03:04:00,
2013-03-10 22:09:00,18.8,15.3,30.03,NNW,327,11.0,19.0,86,0.00,,,0.00,0,Wunderground v.1.15,2013-03-11 03:09:00,
2013-03-10 22:14:00,18.9,15.4,30.03,NNW,343,9.0,19.0,86,0.00,,,0.00,0,Wunderground v.1.15,2013-03-11 03:14:00,
2013-03-10 22:19:00,18.9,15.4,30.03,NW,326,12.0,21.0,86,0.00,,,0.00,0,Wunderground v.1.15,2013-03-11 03:19:00,
2013-03-10 22:24:00,18.9,15.4,30.03,North,355,13.0,21.0,86,0.00,,,0.00,0,Wunderground v.1.15,2013-03-11 03:24:00,
2013-03-10 22:29:00,19.0,15.5,30.03,NW,320,10.0,21.0,86,0.00,,,0.00,0,Wunderground v.1.15,2013-03-11 03:29:00,
2013-03-10 22:34:00,19.0,15.5,30.03,NNW,338,15.0,19.0,86,0.00,,,0.00,0,Wunderground v.1.15,2013-03-11 03:34:00,
2013-03-10 22:39:00,19.0,15.5,30.03,NW,308,14.0,19.0,86,0.00,,,0.00,0,Wunderground v.1.15,2013-03-11 03:39:00,
2013-03-10 22:44:00,18.9,15.4,30.03,North,355,10.0,23.0,86,0.00,,,0.00,0,Wunderground v.1.15,2013-03-11 03:44:00,
2013-03-10 22:49:00,18.9,15.4,30.03,NNW,335,9.0,23.0,86,0.00,,,0.00,0,Wunderground v.1.15,2013-03-11 03:49:00,
2013-03-10 22:54:00,18.8,15.3,30.03,NNW,331,14.0,19.0,86,0.00,,,0.00,0,Wunderground v.1.15,2013-03-11 03:54:00,
2013-03-10 22:59:00,18.6,15.1,30.03,NNW,340,15.0,20.0,86,0.00,,,0.00,0,Wunderground v.1.15,2013-03-11 03:59:00,
2013-03-10 23:00:00,18.6,15.1,30.03,NNW,330,18.0,20.0,86,0.00,,,0.00,0,Wunderground v.1.15,2013-03-11 04:00:00,
2013-03-10 23:05:00,18.5,15.0,30.03,NNW,338,11.0,23.0,86,0.00,,,0.00,0,Wunderground v.1.15,2013-03-11 04:05:00,
2013-03-10 23:10:00,18.3,14.8,30.03,NNW,346,9.0,13.0,86,0.00,,,0.00,0,Wunderground v.1.15,2013-03-11 04:10:00,
2013-03-10 23:15:00,18.1,14.6,30.03,North,11,6.0,18.0,86,0.00,,,0.00,0,Wunderground v.1.15,2013-03-11 04:15:00,
2013-03-10 23:20:00,17.9,14.4,30.03,NNW,339,5.0,10.0,86,0.00,,,0.00,0,Wunderground v.1.15,2013-03-11 04:20:00,
2013-03-10 23:25:00,17.6,14.1,30.03,NW,318,7.0,13.0,86,0.00,,,0.00,0,Wunderground v.1.15,2013-03-11 04:25:00,
2013-03-10 23:30:00,17.3,13.8,30.03,NNW,336,7.0,9.0,86,0.00,,,0.00,0,Wunderground v.1.15,2013-03-11 04:30:00,
2013-03-10 23:35:00,17.1,13.6,30.03,NNW,337,7.0,9.0,86,0.00,,,0.00,0,Wunderground v.1.15,2013-03-11 04:35:00,
2013-03-10 23:40:00,17.0,13.5,30.02,NNW,346,10.0,12.0,86,0.00,,,0.00,0,Wunderground v.1.15,2013-03-11 04:40:00,
2013-03-10 23:45:00,16.8,13.6,30.02,NNW,339,7.0,16.0,87,0.00,,,0.00,0,Wunderground v.1.15,2013-03-11 04:45:00,
2013-03-10 23:50:00,16.7,13.5,30.02,NNW,335,8.0,10.0,87,0.00,,,0.00,0,Wunderground v.1.15,2013-03-11 04:50:00,
2013-03-10 23:55:00,16.7,13.5,30.02,NNW,344,14.0,16.0,87,0.00,,,0.00,0,Wunderground v.1.15,2013-03-11 04:55:00,